Honolulu, HI

02:45 AM HST del 10 Dicembre 2016 (GMT -1000)
Honolulu Harbor Pier 35 | | Change Station

Alt. 0 ft 21.32 °N, 157.88 °W | Updated 1 second ago

Parzialmente nuvoloso
Parzialmente nuvoloso
72.4 °F
Sembra 72.4 °F
N
3.0
Vento Variabile Vento da NE
Gusts 4.0 mph

Oggi
Massima -- | Minima -- °F
--% Possibilità di precip.
Ieri
Massima -- | Minima -- °F
Precip. -- in
Pressione 29.95 in
Visibilità 10.0 miglia
Nuvole Alcuni 2500 ft
Alcuni 3600 ft
Punto di rugiada 69 °F
Umidità 90%
Piovosità 0.00 in
Spessore del manto nevoso Non disponibile.
6:58 AM 5:50 PM
Gobba a ponente, 83% visible
METAR PHNL 101153Z 33003KT 10SM FEW025 FEW036 21/20 A2995 RMK AO2 SLP140 70004 T02110200 10233 20211 56013
Pressione 29.95 in
Visibilità 10.0 miglia
Nuvole Alcuni 2500 ft
Alcuni 3600 ft
Punto di rugiada 69 °F
Umidità 90%
Piovosità 0.00 in
Spessore del manto nevoso Non disponibile.
6:58 AM 5:50 PM
Gobba a ponente, 83% visible
METAR PHNL 101153Z 33003KT 10SM FEW025 FEW036 21/20 A2995 RMK AO2 SLP140 70004 T02110200 10233 20211 56013

10-Day Weather Forecast

Almanac

Astronomia

Dec. 10, 2016 Alba Tramonto
Ora attuale
Crepuscolo civile
Crepuscolo nautico
Crepuscolo astronomico
Luna
Estensione della luce visibile
Lunghezza del giorno
Tomorrow will be .
, % of the Moon is Illuminated

Gli estremi di oggi

State Highs State Lows

Community

WunderPhotos

Upload Photos

1,956,540 foto caricate!

WunderBlog® & News

Nearby

Qualità dell'aria

  Qualità dell'aria Indice AQ Inquinante
Not available.

Profondità neve

Stazione Profondità Altitudine

Attività sismica

Città  Distanza Mag. Data & Ora
Minimo Magnitudo Mostrato è 2.5.

Temperature delle acque costiere

Località Temperatura

Stations

Stazioni meteo nelle vicinanze

Ubicazione della stazione Temp. Raffreddamento del vento Punto di rugiada Umidità Vento Precip. Alt. Aggiornato Tipo
                   

Watches & Warnings

There are currently no watches in effect.